Disclaimer

Please do not use the information listed here in-flight or in-navigation, as they are not provided to us by the airports but are provided by volunteers, so they might be outdated.

Search


Regions


Airport information page

Radio informations:
RDO - 126.9 MHz

Airport informations:
Latitude: 13° 42' 23.07" S
Longitude: 073° 21' 01.36" W
Elevation: 11300 feet - 3444 meters
Operating hours: Remarks
Operating agency: Civil government, landing fees and diplomatic clearance may be required
Timezone: UTC-5
Fuel: N/A

Runway information:
03/21 - 8202 x 98 feet< - >2500 x 30 meters

Recent METARs:
SPHY 191900Z 01010KT 9999 FEW011 BKN060 13/03 Q1035 RMK PP000
SPHY 191900Z 01010KT 9999 FEW011 BKN060 13/03 Q1035 RMK PP000

Airport on the map: